createdAt,value
2018-08-14T03:14:44.997Z,0.00
2018-08-14T03:15:44.977Z,0.00
2018-08-14T03:16:44.975Z,0.00
2018-08-14T03:17:44.975Z,0.00
2018-08-14T03:18:44.984Z,0.00
2018-08-14T03:19:45.030Z,0.00
2018-08-14T03:20:44.977Z,0.00
2018-08-14T03:21:44.975Z,0.00
2018-08-14T03:22:44.974Z,0.00
2018-08-14T03:23:44.982Z,0.00
2018-08-14T03:24:44.969Z,0.00
2018-08-14T03:25:44.978Z,0.00
2018-08-14T03:26:44.977Z,0.00
2018-08-14T03:27:44.977Z,0.00
2018-08-14T03:28:44.979Z,0.00
2018-08-14T03:29:44.975Z,0.00
2018-08-14T03:30:44.999Z,0.00
2018-08-14T03:31:44.998Z,0.00
2018-08-14T03:32:44.992Z,0.00
2018-08-14T03:33:45.016Z,0.00
2018-08-14T03:34:45.005Z,0.00
2018-08-14T03:35:44.991Z,0.00
2018-08-14T03:36:45.000Z,0.00
2018-08-14T03:37:45.015Z,0.00
2018-08-14T03:38:44.998Z,0.00
2018-08-14T03:39:45.000Z,0.00
2018-08-14T03:40:45.014Z,0.00
2018-08-14T03:41:45.007Z,0.00
2018-08-14T03:42:45.012Z,0.00
2018-08-14T03:43:45.026Z,0.00
2018-08-14T03:44:45.013Z,0.00
2018-08-14T03:45:45.015Z,0.00
2018-08-14T03:46:45.021Z,0.00
2018-08-14T03:47:45.029Z,0.00
2018-08-14T03:48:45.050Z,0.00
2018-08-14T03:49:45.026Z,0.00
2018-08-14T03:50:45.038Z,0.00
2018-08-14T03:51:45.033Z,4.00
2018-08-14T03:52:45.041Z,0.00
2018-08-14T03:53:45.037Z,0.00
2018-08-14T03:54:45.040Z,4.00
2018-08-14T03:55:45.038Z,4.00
2018-08-14T03:56:45.055Z,4.00
2018-08-14T03:57:45.048Z,8.00
2018-08-14T03:58:45.060Z,4.00
2018-08-14T03:59:45.066Z,8.00
2018-08-14T04:00:45.057Z,8.00
2018-08-14T04:01:45.059Z,8.00
2018-08-14T04:02:45.064Z,12.00
2018-08-14T04:03:45.064Z,12.00
2018-08-14T04:04:45.071Z,16.00
2018-08-14T04:05:45.068Z,16.00
2018-08-14T04:06:45.079Z,20.00
2018-08-14T04:07:45.091Z,20.00
2018-08-14T04:08:45.150Z,20.00
2018-08-14T04:09:45.084Z,28.00
2018-08-14T04:10:45.134Z,28.00
2018-08-14T04:11:45.094Z,28.00
2018-08-14T04:12:45.123Z,36.00
2018-08-14T04:13:45.095Z,48.00
2018-08-14T04:14:45.171Z,40.00
2018-08-14T04:15:45.115Z,52.00
2018-08-14T04:16:45.117Z,60.00
2018-08-14T04:17:45.098Z,68.00
2018-08-14T04:18:45.165Z,72.00
2018-08-14T04:19:45.121Z,76.00
2018-08-14T04:20:45.235Z,92.00
2018-08-14T04:21:45.109Z,96.00
2018-08-14T04:22:45.160Z,108.00
2018-08-14T04:23:45.117Z,104.00
2018-08-14T04:24:45.122Z,112.00
2018-08-14T04:25:45.137Z,148.00
2018-08-14T04:26:45.191Z,136.00
2018-08-14T04:27:45.127Z,124.00
2018-08-14T04:28:45.129Z,156.00
2018-08-14T04:29:45.153Z,172.00
2018-08-14T04:30:45.142Z,208.00
2018-08-14T04:31:45.149Z,196.00
2018-08-14T04:32:45.150Z,224.00
2018-08-14T04:33:45.146Z,228.00
2018-08-14T04:34:45.161Z,244.00
2018-08-14T04:35:45.148Z,260.00
2018-08-14T04:36:45.161Z,280.00
2018-08-14T04:37:45.151Z,360.00
2018-08-14T04:38:45.165Z,444.00
2018-08-14T04:39:45.169Z,436.00
2018-08-14T04:40:45.175Z,508.00
2018-08-14T04:41:45.166Z,544.00
2018-08-14T04:42:45.164Z,532.00
2018-08-14T04:43:45.166Z,568.00
2018-08-14T04:44:45.173Z,604.00
2018-08-14T04:45:45.211Z,636.00
2018-08-14T04:46:45.173Z,688.00
2018-08-14T04:47:45.176Z,696.00
2018-08-14T04:48:45.178Z,684.00
2018-08-14T04:49:45.200Z,664.00
2018-08-14T04:50:45.175Z,680.00
2018-08-14T04:51:45.185Z,828.00
2018-08-14T04:52:45.200Z,936.00
2018-08-14T04:53:45.235Z,912.00
2018-08-14T04:54:45.196Z,1040.00
2018-08-14T04:55:45.216Z,932.00
2018-08-14T04:56:45.208Z,820.00
2018-08-14T04:57:45.203Z,712.00
2018-08-14T04:58:45.227Z,792.00
2018-08-14T04:59:45.214Z,868.00
2018-08-14T05:00:53.864Z,1116.00
2018-08-14T05:02:39.655Z,1492.00
2018-08-14T05:03:39.635Z,1748.00
2018-08-14T05:04:39.627Z,1660.00
2018-08-14T05:05:39.640Z,1784.00
2018-08-14T05:06:39.639Z,1832.00
2018-08-14T05:07:39.641Z,1884.00
2018-08-14T05:08:39.647Z,1976.00
2018-08-14T05:09:39.649Z,2116.00
2018-08-14T05:10:39.652Z,2432.00
2018-08-14T05:11:39.648Z,2480.00
2018-08-14T05:12:39.656Z,2344.00
2018-08-14T05:13:39.667Z,2508.00
2018-08-14T05:14:39.705Z,2452.00
2018-08-14T05:15:39.662Z,2664.00
2018-08-14T05:16:39.679Z,2600.00
2018-08-14T05:17:39.707Z,2584.00
2018-08-14T05:18:39.681Z,2688.00
2018-08-14T05:19:39.701Z,3028.00
2018-08-14T05:20:39.718Z,3148.00
2018-08-14T05:21:39.709Z,2964.00
2018-08-14T05:22:39.714Z,7664.00
2018-08-14T05:23:39.736Z,44096.00
2018-08-14T05:24:39.713Z,26944.00
2018-08-14T05:25:39.728Z,47520.00
2018-08-14T05:26:39.727Z,47296.00
2018-08-14T05:27:39.777Z,52384.00
2018-08-14T05:28:39.733Z,54112.00
2018-08-14T05:29:39.741Z,51008.00
2018-08-14T05:30:39.756Z,44256.00
2018-08-14T05:31:39.778Z,4360.00
2018-08-14T05:32:39.800Z,29824.00
2018-08-14T05:33:39.927Z,3100.00
2018-08-14T05:34:39.791Z,41120.00
2018-08-14T05:35:39.796Z,55648.00
2018-08-14T05:36:39.834Z,5536.00
2018-08-14T05:37:39.813Z,4308.00
2018-08-14T05:38:39.815Z,5296.00
2018-08-14T05:39:39.819Z,3752.00
2018-08-14T05:40:39.819Z,4344.00
2018-08-14T05:41:39.873Z,11360.00
2018-08-14T05:42:39.832Z,4684.00
2018-08-14T05:43:39.869Z,4380.00
2018-08-14T05:44:39.837Z,5544.00
2018-08-14T05:45:39.880Z,4808.00
2018-08-14T05:46:39.883Z,4396.00
2018-08-14T05:47:39.895Z,4816.00
2018-08-14T05:48:39.905Z,4940.00
2018-08-14T05:49:39.888Z,5200.00
2018-08-14T05:50:39.900Z,5792.00
2018-08-14T05:51:39.942Z,5884.00
2018-08-14T05:52:39.932Z,5340.00
2018-08-14T05:53:39.931Z,5508.00
2018-08-14T05:54:39.988Z,5604.00
2018-08-14T05:55:39.934Z,7216.00
2018-08-14T05:56:39.970Z,6112.00
2018-08-14T05:57:39.988Z,6168.00
2018-08-14T05:58:39.978Z,76256.00
2018-08-14T05:59:39.995Z,6288.00
2018-08-14T06:00:40.014Z,6560.00
2018-08-14T06:01:40.044Z,6808.00
2018-08-14T06:02:40.039Z,6972.00
2018-08-14T06:03:40.023Z,7080.00
2018-08-14T06:04:40.039Z,85696.00
2018-08-14T06:05:40.065Z,35200.00
2018-08-14T06:06:40.071Z,76864.00
2018-08-14T06:07:40.077Z,79872.00
2018-08-14T06:08:40.120Z,82944.00
2018-08-14T06:09:40.100Z,86144.00
2018-08-14T06:10:40.117Z,85184.00
2018-08-14T06:11:40.130Z,84064.00
2018-08-14T06:12:40.142Z,89408.00
2018-08-14T06:13:40.158Z,83072.00
2018-08-14T06:14:40.192Z,52256.00
2018-08-14T06:15:40.205Z,19712.00
2018-08-14T06:16:40.214Z,4592.00
2018-08-14T06:17:40.239Z,4020.00
2018-08-14T06:18:40.232Z,3372.00
2018-08-14T06:19:40.250Z,3272.00
2018-08-14T06:20:40.274Z,3240.00
2018-08-14T06:21:40.276Z,3100.00
2018-08-14T06:22:40.292Z,2864.00
2018-08-14T06:23:40.300Z,2780.00
2018-08-14T06:24:40.350Z,2700.00
2018-08-14T06:25:40.336Z,2336.00
2018-08-14T06:26:40.353Z,1972.00
2018-08-14T06:27:40.422Z,1668.00
2018-08-14T06:28:40.357Z,1440.00
2018-08-14T06:29:40.378Z,1252.00
2018-08-14T06:30:40.377Z,1444.00
2018-08-14T06:31:40.424Z,1264.00
2018-08-14T06:32:40.407Z,1348.00
2018-08-14T06:33:40.427Z,1312.00
2018-08-14T06:34:40.420Z,1236.00
2018-08-14T06:35:40.449Z,1340.00
2018-08-14T06:36:40.443Z,1276.00
2018-08-14T06:37:40.459Z,1232.00
2018-08-14T06:38:40.463Z,1072.00
2018-08-14T06:39:40.479Z,1284.00
2018-08-14T06:40:40.477Z,1280.00
2018-08-14T06:41:40.487Z,1216.00
2018-08-14T06:42:40.547Z,1168.00
2018-08-14T06:43:40.503Z,1208.00
2018-08-14T06:44:40.514Z,1188.00
2018-08-14T06:45:40.523Z,1228.00
2018-08-14T06:46:40.521Z,1172.00
2018-08-14T06:47:40.541Z,1224.00
2018-08-14T06:48:40.549Z,984.00
2018-08-14T06:49:40.540Z,1096.00
2018-08-14T06:50:40.573Z,1152.00
2018-08-14T06:51:40.554Z,1056.00
2018-08-14T06:52:40.562Z,1304.00
2018-08-14T06:53:40.578Z,1168.00
2018-08-14T06:54:40.622Z,1188.00
2018-08-14T06:55:40.590Z,1292.00
2018-08-14T06:56:40.585Z,1080.00
2018-08-14T06:57:40.605Z,1140.00
2018-08-14T06:58:40.590Z,1104.00
2018-08-14T06:59:40.608Z,1108.00
2018-08-14T07:00:40.612Z,1068.00
2018-08-14T07:01:40.621Z,1164.00
2018-08-14T07:02:40.627Z,1100.00
2018-08-14T07:03:40.633Z,1196.00
2018-08-14T07:04:40.639Z,1200.00
2018-08-14T07:05:40.634Z,964.00
2018-08-14T07:06:40.645Z,1032.00
2018-08-14T07:07:40.643Z,1244.00
2018-08-14T07:08:40.653Z,1080.00
2018-08-14T07:09:40.696Z,1108.00
2018-08-14T07:10:40.660Z,1092.00
2018-08-14T07:11:40.670Z,1012.00
2018-08-14T07:12:40.672Z,972.00
2018-08-14T07:13:40.680Z,1124.00
2018-08-14T07:14:40.680Z,1076.00
2018-08-14T07:15:40.703Z,1168.00
2018-08-14T07:16:40.723Z,1064.00
2018-08-14T07:17:40.703Z,1044.00
2018-08-14T07:18:40.703Z,1212.00
2018-08-14T07:19:40.712Z,1092.00
2018-08-14T07:20:40.722Z,1028.00
2018-08-14T07:21:40.724Z,1104.00
2018-08-14T07:22:40.732Z,1092.00
2018-08-14T07:23:40.732Z,1464.00
2018-08-14T07:24:40.727Z,1036.00
2018-08-14T07:25:40.744Z,1200.00
2018-08-14T07:26:40.743Z,1060.00
2018-08-14T07:27:40.749Z,1132.00
2018-08-14T07:28:40.755Z,1228.00
2018-08-14T07:29:40.767Z,1156.00
2018-08-14T07:30:40.763Z,1768.00
2018-08-14T07:31:40.771Z,1188.00
2018-08-14T07:32:40.774Z,1088.00
2018-08-14T07:33:40.777Z,1268.00
2018-08-14T07:34:40.787Z,1116.00
2018-08-14T07:35:40.783Z,1232.00
2018-08-14T07:36:40.792Z,1032.00
2018-08-14T07:37:40.800Z,1064.00
2018-08-14T07:38:40.800Z,1040.00
2018-08-14T07:39:40.819Z,1064.00
2018-08-14T07:40:40.813Z,1048.00
2018-08-14T07:41:40.819Z,1088.00
2018-08-14T07:42:40.817Z,972.00
2018-08-14T07:43:40.827Z,1192.00
2018-08-14T07:44:40.829Z,1104.00
2018-08-14T07:45:40.830Z,1020.00
2018-08-14T07:46:40.841Z,1276.00
2018-08-14T07:47:40.844Z,1140.00
2018-08-14T07:48:40.852Z,1112.00
2018-08-14T07:49:40.852Z,1156.00
2018-08-14T07:50:40.853Z,1260.00
2018-08-14T07:51:40.859Z,1088.00
2018-08-14T07:52:40.863Z,1304.00
2018-08-14T07:53:40.867Z,1344.00
2018-08-14T07:54:40.878Z,1360.00
2018-08-14T07:55:40.946Z,1440.00
2018-08-14T07:56:40.898Z,1416.00
2018-08-14T07:57:40.885Z,1328.00
2018-08-14T07:58:40.892Z,1388.00
2018-08-14T07:59:40.898Z,1420.00
2018-08-14T08:00:40.907Z,1256.00
2018-08-14T08:01:40.919Z,1516.00
2018-08-14T08:02:40.925Z,1508.00
2018-08-14T08:03:40.930Z,1356.00
2018-08-14T08:04:40.927Z,1308.00
2018-08-14T08:05:40.942Z,1104.00
2018-08-14T08:06:40.940Z,1288.00
2018-08-14T08:07:40.934Z,1368.00
2018-08-14T08:08:40.960Z,1448.00
2018-08-14T08:09:40.965Z,1072.00
2018-08-14T08:10:40.952Z,1276.00
2018-08-14T08:11:40.958Z,1332.00
2018-08-14T08:12:40.969Z,1356.00
2018-08-14T08:13:40.974Z,1248.00
2018-08-14T08:14:40.971Z,1284.00
2018-08-14T08:15:40.974Z,1076.00
2018-08-14T08:16:40.978Z,1272.00
2018-08-14T08:17:41.018Z,1476.00
2018-08-14T08:18:40.999Z,1428.00
2018-08-14T08:19:40.991Z,1392.00
2018-08-14T08:20:41.005Z,1404.00
2018-08-14T08:21:41.019Z,1440.00
2018-08-14T08:22:41.034Z,1332.00
2018-08-14T08:23:41.032Z,1308.00
2018-08-14T08:24:41.159Z,1244.00
2018-08-14T08:25:41.054Z,1216.00
2018-08-14T08:26:41.029Z,1108.00
2018-08-14T08:27:41.045Z,1244.00
2018-08-14T08:28:41.041Z,1124.00
2018-08-14T08:29:41.043Z,1180.00
2018-08-14T08:30:41.051Z,1124.00
2018-08-14T08:31:41.070Z,1132.00
2018-08-14T08:32:41.054Z,1160.00
2018-08-14T08:33:41.083Z,1176.00
2018-08-14T08:34:41.074Z,1156.00
2018-08-14T08:35:41.102Z,1192.00
2018-08-14T08:36:41.071Z,1132.00
2018-08-14T08:37:41.104Z,1164.00
2018-08-14T08:38:41.083Z,1380.00
2018-08-14T08:39:41.101Z,1240.00
2018-08-14T08:40:41.117Z,1072.00
2018-08-14T08:41:41.137Z,1184.00
2018-08-14T08:42:41.099Z,1144.00
2018-08-14T08:43:41.117Z,1320.00
2018-08-14T08:44:41.121Z,1292.00
2018-08-14T08:45:41.120Z,1172.00
2018-08-14T08:46:41.127Z,1216.00
2018-08-14T08:47:41.132Z,1112.00
2018-08-14T08:48:41.141Z,976.00
2018-08-14T08:49:41.138Z,1132.00
2018-08-14T08:50:41.143Z,1240.00
2018-08-14T08:51:41.167Z,1152.00
2018-08-14T08:52:41.151Z,1100.00
2018-08-14T08:53:41.166Z,980.00
2018-08-14T08:54:41.161Z,968.00
2018-08-14T08:55:41.158Z,1036.00
2018-08-14T08:56:41.175Z,1040.00
2018-08-14T08:57:41.167Z,1016.00
2018-08-14T08:58:41.185Z,1164.00
2018-08-14T08:59:41.184Z,1120.00
2018-08-14T09:00:41.197Z,1092.00
2018-08-14T09:01:41.226Z,1112.00
2018-08-14T09:02:41.247Z,1104.00
2018-08-14T09:03:41.244Z,1080.00
2018-08-14T09:04:41.204Z,1204.00
2018-08-14T09:05:41.206Z,1140.00
2018-08-14T09:06:41.217Z,1096.00
2018-08-14T09:07:41.223Z,1000.00
2018-08-14T09:08:41.235Z,1124.00
2018-08-14T09:09:41.228Z,1148.00
2018-08-14T09:10:41.245Z,1056.00
2018-08-14T09:11:41.238Z,1036.00
2018-08-14T09:12:41.276Z,1360.00
2018-08-14T09:13:41.256Z,1284.00
2018-08-14T09:14:41.252Z,1016.00
2018-08-14T09:15:41.560Z,1056.00
2018-08-14T09:16:41.268Z,1084.00
2018-08-14T09:17:41.450Z,1064.00
2018-08-14T09:18:41.275Z,1088.00
2018-08-14T09:19:41.276Z,1020.00
2018-08-14T09:20:41.284Z,1032.00
2018-08-14T09:21:41.302Z,940.00
2018-08-14T09:22:41.301Z,976.00
2018-08-14T09:23:41.302Z,868.00
2018-08-14T09:24:41.319Z,984.00
2018-08-14T09:25:41.315Z,880.00
2018-08-14T09:26:41.305Z,976.00
2018-08-14T09:27:41.311Z,988.00
2018-08-14T09:28:41.350Z,972.00
2018-08-14T09:29:41.368Z,996.00
2018-08-14T09:30:41.342Z,836.00
2018-08-14T09:31:41.343Z,932.00
2018-08-14T09:32:41.475Z,892.00
2018-08-14T09:33:41.399Z,936.00
2018-08-14T09:34:41.340Z,996.00
2018-08-14T09:35:41.363Z,968.00
2018-08-14T09:36:41.355Z,1148.00
2018-08-14T09:37:41.362Z,952.00
2018-08-14T09:38:41.370Z,1264.00
2018-08-14T09:39:41.378Z,1020.00
2018-08-14T09:40:41.378Z,996.00
2018-08-14T09:41:41.398Z,1048.00
2018-08-14T09:42:41.405Z,852.00
2018-08-14T09:43:41.395Z,980.00
2018-08-14T09:44:41.399Z,872.00
2018-08-14T09:45:41.413Z,748.00
2018-08-14T09:46:41.406Z,824.00
2018-08-14T09:47:41.447Z,848.00
2018-08-14T09:48:41.427Z,824.00
2018-08-14T09:49:41.431Z,760.00
2018-08-14T09:50:41.425Z,792.00
2018-08-14T09:51:41.463Z,844.00
2018-08-14T09:52:41.437Z,940.00
2018-08-14T09:53:41.453Z,916.00
2018-08-14T09:54:41.446Z,964.00
2018-08-14T09:55:41.448Z,900.00
2018-08-14T09:56:41.459Z,944.00
2018-08-14T09:57:41.482Z,808.00
2018-08-14T09:58:41.475Z,908.00
2018-08-14T09:59:41.471Z,860.00
2018-08-14T10:00:41.479Z,756.00
2018-08-14T10:01:41.517Z,844.00
2018-08-14T10:02:41.481Z,896.00
2018-08-14T10:03:41.498Z,1056.00
2018-08-14T10:04:41.506Z,904.00
2018-08-14T10:05:41.493Z,740.00
2018-08-14T10:06:41.502Z,900.00
2018-08-14T10:07:41.511Z,812.00
2018-08-14T10:08:41.514Z,808.00
2018-08-14T10:09:41.519Z,852.00
2018-08-14T10:10:41.526Z,848.00
2018-08-14T10:11:41.537Z,836.00
2018-08-14T10:12:41.536Z,904.00
2018-08-14T10:13:41.560Z,860.00
2018-08-14T10:14:41.552Z,952.00
2018-08-14T10:15:41.545Z,912.00
2018-08-14T10:16:41.553Z,860.00
2018-08-14T10:17:41.555Z,948.00
2018-08-14T10:18:41.562Z,920.00
2018-08-14T10:19:41.584Z,920.00
2018-08-14T10:20:50.948Z,920.00
2018-08-14T10:22:34.986Z,976.00
2018-08-14T10:23:34.977Z,860.00
2018-08-14T10:24:34.980Z,888.00
2018-08-14T10:25:34.990Z,884.00
2018-08-14T10:26:34.994Z,868.00
2018-08-14T10:27:34.991Z,872.00
2018-08-14T10:28:35.071Z,876.00
2018-08-14T10:29:35.010Z,768.00
2018-08-14T10:30:35.012Z,876.00
2018-08-14T10:31:35.017Z,992.00
2018-08-14T10:32:35.022Z,964.00
2018-08-14T10:33:35.029Z,1016.00
2018-08-14T10:34:35.052Z,1080.00
2018-08-14T10:35:35.092Z,992.00
2018-08-14T10:36:35.057Z,884.00
2018-08-14T10:37:35.045Z,912.00
2018-08-14T10:38:35.065Z,1068.00
2018-08-14T10:39:35.073Z,996.00
2018-08-14T10:40:35.101Z,1048.00
2018-08-14T10:41:35.070Z,1128.00
2018-08-14T10:42:35.112Z,976.00
2018-08-14T10:43:35.082Z,1012.00
2018-08-14T10:44:35.087Z,940.00
2018-08-14T10:45:35.088Z,980.00
2018-08-14T10:46:35.187Z,1216.00
2018-08-14T10:47:35.107Z,1232.00
2018-08-14T10:48:35.101Z,1076.00
2018-08-14T10:49:35.110Z,1236.00
2018-08-14T10:50:35.115Z,1348.00
2018-08-14T10:51:35.121Z,1148.00
2018-08-14T10:52:35.129Z,1176.00
2018-08-14T10:53:35.130Z,1256.00
2018-08-14T10:54:35.144Z,1488.00
2018-08-14T10:55:35.141Z,1648.00
2018-08-14T10:56:35.140Z,1420.00
2018-08-14T10:57:35.149Z,1424.00
2018-08-14T10:58:35.166Z,1300.00
2018-08-14T10:59:35.163Z,1364.00
2018-08-14T11:00:35.163Z,1132.00
2018-08-14T11:01:35.178Z,1108.00
2018-08-14T11:02:35.176Z,988.00
2018-08-14T11:03:35.179Z,964.00
2018-08-14T11:04:35.308Z,1008.00
2018-08-14T11:05:35.200Z,1204.00
2018-08-14T11:06:35.202Z,1048.00
2018-08-14T11:07:35.211Z,1020.00
2018-08-14T11:08:35.216Z,1100.00
2018-08-14T11:09:35.220Z,1088.00
2018-08-14T11:10:35.246Z,988.00
2018-08-14T11:11:35.247Z,1076.00
2018-08-14T11:12:35.244Z,1076.00
2018-08-14T11:13:35.243Z,1160.00
2018-08-14T11:14:35.243Z,1104.00
2018-08-14T11:15:35.250Z,1152.00
2018-08-14T11:16:35.260Z,1048.00
2018-08-14T11:17:35.270Z,984.00
2018-08-14T11:18:35.276Z,924.00
2018-08-14T11:19:35.301Z,1004.00
2018-08-14T11:20:35.282Z,896.00
2018-08-14T11:21:35.291Z,800.00
2018-08-14T11:22:35.298Z,784.00
2018-08-14T11:23:35.311Z,1076.00
2018-08-14T11:24:35.299Z,836.00
2018-08-14T11:25:35.313Z,1028.00
2018-08-14T11:26:35.314Z,1144.00
2018-08-14T11:27:35.321Z,1172.00
2018-08-14T11:28:35.332Z,1204.00
2018-08-14T11:29:35.336Z,1136.00
2018-08-14T11:30:35.355Z,1104.00
2018-08-14T11:31:35.350Z,1096.00
2018-08-14T11:32:35.421Z,1056.00
2018-08-14T11:33:35.358Z,1068.00
2018-08-14T11:34:35.363Z,1020.00
2018-08-14T11:35:35.392Z,1028.00
2018-08-14T11:36:35.381Z,1028.00
2018-08-14T11:37:35.381Z,1016.00
2018-08-14T11:38:35.389Z,1008.00
2018-08-14T11:39:35.401Z,992.00
2018-08-14T11:40:35.400Z,1080.00
2018-08-14T11:41:35.465Z,1156.00
2018-08-14T11:42:35.404Z,1032.00
2018-08-14T11:43:35.416Z,1056.00
2018-08-14T11:44:35.428Z,1052.00
2018-08-14T11:45:35.431Z,1052.00
2018-08-14T11:46:35.444Z,1104.00
2018-08-14T11:47:35.442Z,1116.00
2018-08-14T11:48:35.441Z,1124.00
2018-08-14T11:49:35.460Z,1160.00
2018-08-14T11:50:35.453Z,1344.00
2018-08-14T11:51:35.468Z,1364.00
2018-08-14T11:52:35.465Z,1312.00
2018-08-14T11:53:35.479Z,1232.00
2018-08-14T11:54:35.497Z,1344.00
2018-08-14T11:55:35.484Z,1228.00
2018-08-14T11:56:35.504Z,1232.00
2018-08-14T11:57:35.634Z,1296.00
2018-08-14T11:58:35.538Z,1288.00
2018-08-14T11:59:35.507Z,1224.00
2018-08-14T12:00:35.524Z,1256.00
2018-08-14T12:01:35.525Z,1248.00
2018-08-14T12:02:35.533Z,1260.00
2018-08-14T12:03:35.531Z,1376.00
2018-08-14T12:04:35.543Z,1204.00
2018-08-14T12:05:38.074Z,1576.00
2018-08-14T12:06:35.565Z,1488.00
2018-08-14T12:07:35.556Z,1168.00
2018-08-14T12:08:35.578Z,1064.00
2018-08-14T12:09:35.570Z,1040.00
2018-08-14T12:10:35.580Z,1064.00
2018-08-14T12:11:35.581Z,1056.00
2018-08-14T12:12:35.612Z,896.00
2018-08-14T12:13:35.675Z,980.00
2018-08-14T12:14:35.604Z,1016.00
2018-08-14T12:15:35.617Z,1196.00
2018-08-14T12:16:35.617Z,904.00
2018-08-14T12:17:35.622Z,1036.00
2018-08-14T12:18:35.761Z,964.00
2018-08-14T12:19:35.644Z,904.00
2018-08-14T12:20:35.668Z,996.00
2018-08-14T12:21:35.654Z,1008.00
2018-08-14T12:22:35.651Z,980.00
2018-08-14T12:23:35.652Z,1172.00
2018-08-14T12:24:35.663Z,1240.00
2018-08-14T12:25:35.667Z,1140.00
2018-08-14T12:26:35.670Z,1168.00
2018-08-14T12:27:35.691Z,1172.00
2018-08-14T12:28:35.717Z,1232.00
2018-08-14T12:29:35.722Z,1152.00
2018-08-14T12:30:35.698Z,1024.00
2018-08-14T12:31:35.709Z,1008.00
2018-08-14T12:34:19.448Z,1264.00
2018-08-14T12:35:07.874Z,1376.00
2018-08-14T12:36:07.893Z,1272.00
2018-08-14T12:37:07.878Z,1456.00
2018-08-14T12:38:07.909Z,1260.00
2018-08-14T12:39:07.878Z,1328.00
2018-08-14T12:40:07.897Z,1344.00
2018-08-14T12:41:07.897Z,1316.00
2018-08-14T12:42:07.893Z,1308.00
2018-08-14T12:43:07.936Z,1352.00
2018-08-14T12:44:07.903Z,1384.00
2018-08-14T12:45:07.908Z,1260.00
2018-08-14T12:46:07.917Z,1176.00
2018-08-14T12:47:08.016Z,1144.00
2018-08-14T12:48:07.928Z,1116.00
2018-08-14T12:49:07.935Z,1012.00
2018-08-14T12:50:07.940Z,1128.00
2018-08-14T12:51:07.947Z,1108.00
2018-08-14T12:52:07.994Z,1052.00
2018-08-14T12:53:07.966Z,1056.00
2018-08-14T12:54:16.636Z,1048.00
2018-08-14T12:56:01.409Z,1112.00
2018-08-14T12:57:01.377Z,1092.00
2018-08-14T12:58:10.060Z,1068.00
2018-08-14T12:59:54.839Z,1128.00
2018-08-14T13:00:54.807Z,1132.00
2018-08-14T13:01:54.883Z,1192.00
2018-08-14T13:02:54.820Z,1284.00
2018-08-14T13:03:54.815Z,1180.00
2018-08-14T13:04:54.859Z,1224.00
2018-08-14T13:05:54.832Z,1284.00
2018-08-14T13:06:54.837Z,1348.00
2018-08-14T13:07:54.842Z,1316.00
2018-08-14T13:08:54.880Z,1320.00
2018-08-14T13:09:54.865Z,1304.00
2018-08-14T13:10:54.854Z,1292.00
2018-08-14T13:11:54.903Z,1244.00
2018-08-14T13:12:54.868Z,1268.00
2018-08-14T13:13:54.884Z,1236.00
2018-08-14T13:14:54.908Z,1200.00
2018-08-14T13:15:54.893Z,1220.00
2018-08-14T13:16:54.899Z,1236.00
2018-08-14T13:17:54.903Z,1332.00
2018-08-14T13:18:54.913Z,1264.00
2018-08-14T13:19:54.918Z,1252.00
2018-08-14T13:20:54.990Z,1132.00
2018-08-14T13:21:54.962Z,1080.00
2018-08-14T13:22:54.941Z,1044.00
2018-08-14T13:23:54.942Z,1064.00
2018-08-14T13:24:54.955Z,992.00
2018-08-14T13:25:54.972Z,1084.00
2018-08-14T13:26:54.958Z,956.00
2018-08-14T13:27:54.972Z,936.00
2018-08-14T13:28:55.041Z,860.00
2018-08-14T13:29:55.001Z,956.00
2018-08-14T13:30:54.994Z,948.00
2018-08-14T13:31:54.992Z,896.00
2018-08-14T13:32:55.139Z,1020.00
2018-08-14T13:33:55.016Z,964.00
2018-08-14T13:34:55.023Z,980.00
2018-08-14T13:35:55.028Z,976.00
2018-08-14T13:36:55.056Z,904.00
2018-08-14T13:37:55.037Z,904.00
2018-08-14T13:38:55.058Z,860.00
2018-08-14T13:39:55.074Z,876.00
2018-08-14T13:40:55.092Z,880.00
2018-08-14T13:41:55.065Z,892.00
2018-08-14T13:42:55.067Z,904.00
2018-08-14T13:43:55.085Z,972.00
2018-08-14T13:44:55.079Z,1044.00
2018-08-14T13:45:55.092Z,1148.00
2018-08-14T13:46:55.092Z,1064.00
2018-08-14T13:47:55.148Z,1060.00
2018-08-14T13:48:55.103Z,1072.00
2018-08-14T13:49:55.116Z,1100.00
2018-08-14T13:50:55.146Z,1024.00
2018-08-14T13:51:55.129Z,1076.00
2018-08-14T13:52:55.139Z,1036.00
2018-08-14T13:53:55.147Z,1004.00
2018-08-14T13:54:55.161Z,1020.00
2018-08-14T13:55:55.167Z,1056.00
2018-08-14T13:56:55.163Z,984.00
2018-08-14T13:57:55.173Z,976.00
2018-08-14T13:58:55.166Z,968.00
2018-08-14T13:59:55.178Z,996.00
2018-08-14T14:00:55.188Z,1020.00
2018-08-14T14:01:55.188Z,964.00
2018-08-14T14:02:55.208Z,956.00
2018-08-14T14:03:55.209Z,980.00
2018-08-14T14:04:55.230Z,984.00
2018-08-14T14:05:55.217Z,932.00
2018-08-14T14:06:55.222Z,944.00
2018-08-14T14:07:55.235Z,972.00
2018-08-14T14:08:55.249Z,988.00
2018-08-14T14:09:55.252Z,1004.00
2018-08-14T14:10:55.246Z,1004.00
2018-08-14T14:11:55.266Z,976.00
2018-08-14T14:12:55.264Z,1048.00
2018-08-14T14:13:55.274Z,988.00
2018-08-14T14:14:55.280Z,1004.00
2018-08-14T14:15:55.290Z,1124.00
2018-08-14T14:16:55.297Z,1036.00
2018-08-14T14:17:55.317Z,1000.00
2018-08-14T14:18:55.299Z,996.00
2018-08-14T14:19:55.343Z,964.00
2018-08-14T14:20:55.481Z,840.00
2018-08-14T14:21:55.347Z,972.00
2018-08-14T14:22:55.325Z,968.00
2018-08-14T14:23:55.345Z,936.00
2018-08-14T14:24:55.361Z,980.00
2018-08-14T14:25:55.352Z,996.00
2018-08-14T14:26:55.403Z,1016.00
2018-08-14T14:27:55.396Z,960.00
2018-08-14T14:28:55.399Z,932.00
2018-08-14T14:29:55.412Z,952.00
2018-08-14T14:30:55.482Z,924.00
2018-08-14T14:31:55.422Z,884.00
2018-08-14T14:32:55.400Z,792.00
2018-08-14T14:33:55.452Z,844.00
2018-08-14T14:34:55.427Z,912.00
2018-08-14T14:35:55.435Z,928.00
2018-08-14T14:36:55.428Z,932.00
2018-08-14T14:37:55.441Z,964.00
2018-08-14T14:38:55.438Z,984.00
2018-08-14T14:39:55.479Z,944.00
2018-08-14T14:40:55.509Z,936.00
2018-08-14T14:41:55.532Z,1200.00
2018-08-14T14:42:55.535Z,892.00
2018-08-14T14:43:55.495Z,1004.00
2018-08-14T14:44:55.492Z,952.00
2018-08-14T14:45:55.499Z,956.00
2018-08-14T14:46:55.539Z,948.00
2018-08-14T14:47:55.514Z,1088.00
2018-08-14T14:48:55.603Z,908.00
2018-08-14T14:49:55.541Z,1048.00
2018-08-14T14:50:55.594Z,1008.00
2018-08-14T14:51:55.548Z,1152.00
2018-08-14T14:52:55.521Z,1004.00
2018-08-14T14:53:55.526Z,1036.00
2018-08-14T14:54:55.543Z,956.00
2018-08-14T14:55:55.552Z,944.00
2018-08-14T14:56:55.565Z,1120.00
2018-08-14T14:57:55.560Z,992.00
2018-08-14T14:58:55.597Z,1028.00
2018-08-14T14:59:55.582Z,1012.00
2018-08-14T15:00:55.577Z,1064.00
2018-08-14T15:01:55.591Z,1132.00
2018-08-14T15:02:55.594Z,1052.00
2018-08-14T15:03:55.617Z,996.00
2018-08-14T15:04:55.601Z,1076.00
2018-08-14T15:05:55.605Z,1068.00
2018-08-14T15:06:55.634Z,976.00
2018-08-14T15:07:55.629Z,1096.00
2018-08-14T15:08:55.634Z,952.00
2018-08-14T15:09:55.663Z,912.00
2018-08-14T15:10:56.343Z,936.00
2018-08-14T15:11:55.647Z,948.00
2018-08-14T15:12:55.677Z,808.00
2018-08-14T15:13:55.695Z,860.00
2018-08-14T15:14:55.791Z,792.00
2018-08-14T15:15:55.677Z,868.00
2018-08-14T15:16:55.680Z,812.00
2018-08-14T15:17:55.689Z,792.00
2018-08-14T15:18:55.701Z,800.00
2018-08-14T15:19:55.774Z,776.00
2018-08-14T15:20:55.735Z,780.00
2018-08-14T15:21:55.723Z,784.00
2018-08-14T15:22:55.727Z,744.00
2018-08-14T15:23:55.729Z,740.00
2018-08-14T15:24:55.741Z,732.00
2018-08-14T15:25:55.741Z,732.00
2018-08-14T15:26:55.751Z,736.00
2018-08-14T15:27:55.761Z,724.00
2018-08-14T15:28:55.772Z,704.00
2018-08-14T15:29:55.768Z,708.00
2018-08-14T15:31:04.924Z,692.00
2018-08-14T15:32:49.357Z,624.00
2018-08-14T15:33:49.310Z,624.00
2018-08-14T15:34:49.187Z,636.00
2018-08-14T15:35:49.383Z,624.00
2018-08-14T15:36:49.223Z,580.00
2018-08-14T15:37:49.243Z,532.00